Channel Point, Australia
Current Conditions -  °F | °C
As of 12:30 PM on Sunday 26 Oct 2014 (Local Time) from YPDN Reporting Station
Few Clouds Few Clouds  
Wind Chill: 90°   Ceiling: Unl
Heat Index: 91°   Visibility: 6mi
Dew Point: 64°   Wind: 12mph
Humidity: 43%   Direction: 330°NNW
Pressure: 29.88"   Gusts: NA
Location:  13.17°S, 130.12°E
Report Text: YPDN 260330Z 33010KT 9999 FEW045 32/18 Q1012
Loading
Personal Weather Stations






























Interactive Weather Map
Tropical Storm Tracking
New forecast layout! Learn more

10-Day Weather Forecast

Advertisements
Track Severe Weather on mobile